sensor_id;sensor_type;location;lat;lon;timestamp;P1;durP1;ratioP1;P2;durP2;ratioP2
16246;SDS011;8231;50.866;7.944;2023-01-08T00:01:08;3.67;;;2.50;;
16246;SDS011;8231;50.866;7.944;2023-01-08T00:03:37;2.53;;;2.08;;
16246;SDS011;8231;50.866;7.944;2023-01-08T00:06:07;2.28;;;2.08;;
16246;SDS011;8231;50.866;7.944;2023-01-08T00:08:38;2.42;;;2.00;;
16246;SDS011;8231;50.866;7.944;2023-01-08T00:11:06;2.38;;;2.10;;
16246;SDS011;8231;50.866;7.944;2023-01-08T00:13:34;2.45;;;1.85;;
16246;SDS011;8231;50.866;7.944;2023-01-08T00:16:03;2.35;;;1.80;;
16246;SDS011;8231;50.866;7.944;2023-01-08T00:18:33;2.65;;;2.35;;
16246;SDS011;8231;50.866;7.944;2023-01-08T00:21:01;2.25;;;2.05;;
16246;SDS011;8231;50.866;7.944;2023-01-08T00:23:29;2.63;;;2.20;;
16246;SDS011;8231;50.866;7.944;2023-01-08T00:25:59;4.72;;;2.17;;
16246;SDS011;8231;50.866;7.944;2023-01-08T00:28:28;2.22;;;1.67;;
16246;SDS011;8231;50.866;7.944;2023-01-08T00:30:56;2.63;;;1.90;;
16246;SDS011;8231;50.866;7.944;2023-01-08T00:33:26;2.33;;;2.13;;
16246;SDS011;8231;50.866;7.944;2023-01-08T00:35:56;2.08;;;1.75;;
16246;SDS011;8231;50.866;7.944;2023-01-08T00:38:24;2.22;;;1.90;;
16246;SDS011;8231;50.866;7.944;2023-01-08T00:40:53;2.28;;;2.05;;
16246;SDS011;8231;50.866;7.944;2023-01-08T00:43:21;2.90;;;1.83;;
16246;SDS011;8231;50.866;7.944;2023-01-08T00:45:49;1.70;;;1.60;;
16246;SDS011;8231;50.866;7.944;2023-01-08T00:48:19;2.28;;;1.80;;
16246;SDS011;8231;50.866;7.944;2023-01-08T00:50:48;2.20;;;2.03;;
16246;SDS011;8231;50.866;7.944;2023-01-08T00:53:18;5.18;;;2.15;;
16246;SDS011;8231;50.866;7.944;2023-01-08T00:55:47;2.33;;;1.75;;
16246;SDS011;8231;50.866;7.944;2023-01-08T00:58:16;1.95;;;1.75;;
16246;SDS011;8231;50.866;7.944;2023-01-08T01:00:44;4.60;;;2.58;;
16246;SDS011;8231;50.866;7.944;2023-01-08T01:03:12;2.58;;;1.88;;
16246;SDS011;8231;50.866;7.944;2023-01-08T01:05:40;3.45;;;2.60;;
16246;SDS011;8231;50.866;7.944;2023-01-08T01:08:08;4.10;;;3.05;;
16246;SDS011;8231;50.866;7.944;2023-01-08T01:10:38;2.63;;;2.22;;
16246;SDS011;8231;50.866;7.944;2023-01-08T01:13:06;3.70;;;2.28;;
16246;SDS011;8231;50.866;7.944;2023-01-08T01:15:34;3.80;;;2.08;;
16246;SDS011;8231;50.866;7.944;2023-01-08T01:18:02;2.25;;;1.90;;
16246;SDS011;8231;50.866;7.944;2023-01-08T01:20:30;3.20;;;2.90;;
16246;SDS011;8231;50.866;7.944;2023-01-08T01:22:58;2.92;;;2.40;;
16246;SDS011;8231;50.866;7.944;2023-01-08T01:25:26;3.65;;;2.70;;
16246;SDS011;8231;50.866;7.944;2023-01-08T01:27:56;2.60;;;2.40;;
16246;SDS011;8231;50.866;7.944;2023-01-08T01:30:24;3.00;;;2.80;;
16246;SDS011;8231;50.866;7.944;2023-01-08T01:32:52;3.47;;;2.55;;
16246;SDS011;8231;50.866;7.944;2023-01-08T01:35:20;4.18;;;3.42;;
16246;SDS011;8231;50.866;7.944;2023-01-08T01:37:48;5.38;;;3.55;;
16246;SDS011;8231;50.866;7.944;2023-01-08T01:40:16;3.45;;;2.67;;
16246;SDS011;8231;50.866;7.944;2023-01-08T01:42:44;3.40;;;3.10;;
16246;SDS011;8231;50.866;7.944;2023-01-08T01:45:15;3.00;;;2.70;;
16246;SDS011;8231;50.866;7.944;2023-01-08T01:47:46;2.92;;;2.42;;
16246;SDS011;8231;50.866;7.944;2023-01-08T01:50:20;4.47;;;3.10;;
16246;SDS011;8231;50.866;7.944;2023-01-08T01:52:54;3.47;;;2.92;;
16246;SDS011;8231;50.866;7.944;2023-01-08T01:55:27;3.65;;;3.00;;
16246;SDS011;8231;50.866;7.944;2023-01-08T01:57:58;3.08;;;2.78;;
16246;SDS011;8231;50.866;7.944;2023-01-08T02:00:32;4.30;;;3.58;;
16246;SDS011;8231;50.866;7.944;2023-01-08T02:03:02;3.28;;;2.97;;
16246;SDS011;8231;50.866;7.944;2023-01-08T02:05:33;4.45;;;2.80;;
16246;SDS011;8231;50.866;7.944;2023-01-08T02:08:08;3.28;;;2.97;;
16246;SDS011;8231;50.866;7.944;2023-01-08T02:10:41;3.58;;;3.28;;
16246;SDS011;8231;50.866;7.944;2023-01-08T02:13:16;5.03;;;3.10;;
16246;SDS011;8231;50.866;7.944;2023-01-08T02:15:53;5.60;;;3.45;;
16246;SDS011;8231;50.866;7.944;2023-01-08T02:18:26;6.18;;;3.55;;
16246;SDS011;8231;50.866;7.944;2023-01-08T02:21:00;5.45;;;3.55;;
16246;SDS011;8231;50.866;7.944;2023-01-08T02:23:35;4.50;;;3.63;;
16246;SDS011;8231;50.866;7.944;2023-01-08T02:26:15;6.25;;;3.28;;
16246;SDS011;8231;50.866;7.944;2023-01-08T02:28:47;7.95;;;3.97;;
16246;SDS011;8231;50.866;7.944;2023-01-08T02:31:19;3.58;;;3.28;;
16246;SDS011;8231;50.866;7.944;2023-01-08T02:33:49;4.50;;;4.03;;
16246;SDS011;8231;50.866;7.944;2023-01-08T02:36:23;5.10;;;3.88;;
16246;SDS011;8231;50.866;7.944;2023-01-08T02:39:12;5.63;;;3.60;;
16246;SDS011;8231;50.866;7.944;2023-01-08T02:42:03;3.97;;;3.33;;
16246;SDS011;8231;50.866;7.944;2023-01-08T02:44:34;3.78;;;3.33;;
16246;SDS011;8231;50.866;7.944;2023-01-08T02:47:14;4.90;;;3.40;;
16246;SDS011;8231;50.866;7.944;2023-01-08T02:49:47;3.58;;;3.15;;
16246;SDS011;8231;50.866;7.944;2023-01-08T02:52:22;4.90;;;3.60;;
16246;SDS011;8231;50.866;7.944;2023-01-08T02:54:54;4.50;;;2.90;;
16246;SDS011;8231;50.866;7.944;2023-01-08T02:57:27;3.92;;;3.17;;
16246;SDS011;8231;50.866;7.944;2023-01-08T02:59:57;6.93;;;3.35;;
16246;SDS011;8231;50.866;7.944;2023-01-08T03:02:26;3.78;;;3.22;;
16246;SDS011;8231;50.866;7.944;2023-01-08T03:04:59;3.88;;;2.92;;
16246;SDS011;8231;50.866;7.944;2023-01-08T03:07:31;3.25;;;2.95;;
16246;SDS011;8231;50.866;7.944;2023-01-08T03:10:00;3.78;;;2.80;;
16246;SDS011;8231;50.866;7.944;2023-01-08T03:12:32;3.58;;;2.92;;
16246;SDS011;8231;50.866;7.944;2023-01-08T03:15:11;2.72;;;2.53;;
16246;SDS011;8231;50.866;7.944;2023-01-08T03:17:43;2.75;;;2.50;;
16246;SDS011;8231;50.866;7.944;2023-01-08T03:20:15;4.07;;;2.83;;
16246;SDS011;8231;50.866;7.944;2023-01-08T03:22:47;5.22;;;2.45;;
16246;SDS011;8231;50.866;7.944;2023-01-08T03:25:19;3.65;;;2.70;;
16246;SDS011;8231;50.866;7.944;2023-01-08T03:27:53;3.55;;;2.63;;
16246;SDS011;8231;50.866;7.944;2023-01-08T03:30:24;4.60;;;2.70;;
16246;SDS011;8231;50.866;7.944;2023-01-08T03:32:56;2.80;;;2.20;;
16246;SDS011;8231;50.866;7.944;2023-01-08T03:35:26;2.45;;;2.10;;
16246;SDS011;8231;50.866;7.944;2023-01-08T03:37:57;2.95;;;2.08;;
16246;SDS011;8231;50.866;7.944;2023-01-08T03:40:34;2.45;;;2.03;;
16246;SDS011;8231;50.866;7.944;2023-01-08T03:43:08;7.68;;;3.47;;
16246;SDS011;8231;50.866;7.944;2023-01-08T03:45:36;3.33;;;2.10;;
16246;SDS011;8231;50.866;7.944;2023-01-08T03:48:09;3.28;;;1.90;;
16246;SDS011;8231;50.866;7.944;2023-01-08T03:50:38;2.30;;;2.10;;
16246;SDS011;8231;50.866;7.944;2023-01-08T03:53:07;3.17;;;2.10;;
16246;SDS011;8231;50.866;7.944;2023-01-08T03:55:35;2.95;;;2.20;;
16246;SDS011;8231;50.866;7.944;2023-01-08T03:58:03;3.22;;;2.38;;
16246;SDS011;8231;50.866;7.944;2023-01-08T04:00:32;4.03;;;1.80;;
16246;SDS011;8231;50.866;7.944;2023-01-08T04:03:00;2.58;;;2.33;;
16246;SDS011;8231;50.866;7.944;2023-01-08T04:05:31;2.55;;;2.28;;
16246;SDS011;8231;50.866;7.944;2023-01-08T04:07:59;2.38;;;2.15;;
16246;SDS011;8231;50.866;7.944;2023-01-08T04:10:27;3.60;;;2.03;;
16246;SDS011;8231;50.866;7.944;2023-01-08T04:12:55;2.60;;;1.88;;
16246;SDS011;8231;50.866;7.944;2023-01-08T04:15:23;2.10;;;1.90;;
16246;SDS011;8231;50.866;7.944;2023-01-08T04:17:53;4.70;;;1.80;;
16246;SDS011;8231;50.866;7.944;2023-01-08T04:20:21;2.20;;;2.00;;
16246;SDS011;8231;50.866;7.944;2023-01-08T04:22:49;1.73;;;1.33;;
16246;SDS011;8231;50.866;7.944;2023-01-08T04:25:17;7.00;;;2.67;;
16246;SDS011;8231;50.866;7.944;2023-01-08T04:27:45;1.90;;;1.67;;
16246;SDS011;8231;50.866;7.944;2023-01-08T04:30:13;2.25;;;2.00;;
16246;SDS011;8231;50.866;7.944;2023-01-08T04:32:41;1.65;;;1.42;;
16246;SDS011;8231;50.866;7.944;2023-01-08T04:35:11;5.95;;;2.15;;
16246;SDS011;8231;50.866;7.944;2023-01-08T04:37:39;2.95;;;1.70;;
16246;SDS011;8231;50.866;7.944;2023-01-08T04:40:07;1.83;;;1.70;;
16246;SDS011;8231;50.866;7.944;2023-01-08T04:42:36;2.40;;;1.52;;
16246;SDS011;8231;50.866;7.944;2023-01-08T04:45:05;1.30;;;1.08;;
16246;SDS011;8231;50.866;7.944;2023-01-08T04:47:33;3.72;;;1.92;;
16246;SDS011;8231;50.866;7.944;2023-01-08T04:50:01;2.70;;;1.27;;
16246;SDS011;8231;50.866;7.944;2023-01-08T04:52:31;1.63;;;1.52;;
16246;SDS011;8231;50.866;7.944;2023-01-08T04:54:59;1.25;;;1.15;;
16246;SDS011;8231;50.866;7.944;2023-01-08T04:57:27;2.25;;;1.48;;
16246;SDS011;8231;50.866;7.944;2023-01-08T04:59:55;3.78;;;1.25;;
16246;SDS011;8231;50.866;7.944;2023-01-08T05:02:23;1.35;;;1.10;;
16246;SDS011;8231;50.866;7.944;2023-01-08T05:04:51;1.20;;;1.10;;
16246;SDS011;8231;50.866;7.944;2023-01-08T05:07:19;0.93;;;0.90;;
16246;SDS011;8231;50.866;7.944;2023-01-08T05:09:49;2.72;;;1.33;;
16246;SDS011;8231;50.866;7.944;2023-01-08T05:12:17;1.55;;;1.10;;
16246;SDS011;8231;50.866;7.944;2023-01-08T05:14:45;1.20;;;0.90;;
16246;SDS011;8231;50.866;7.944;2023-01-08T05:17:13;1.48;;;1.10;;
16246;SDS011;8231;50.866;7.944;2023-01-08T05:19:41;1.48;;;0.77;;
16246;SDS011;8231;50.866;7.944;2023-01-08T05:22:10;0.90;;;0.90;;
16246;SDS011;8231;50.866;7.944;2023-01-08T05:24:42;1.25;;;0.85;;
16246;SDS011;8231;50.866;7.944;2023-01-08T05:27:11;1.00;;;0.88;;
16246;SDS011;8231;50.866;7.944;2023-01-08T05:29:39;0.90;;;0.80;;
16246;SDS011;8231;50.866;7.944;2023-01-08T05:32:08;1.20;;;1.10;;
16246;SDS011;8231;50.866;7.944;2023-01-08T05:34:41;0.63;;;0.63;;
16246;SDS011;8231;50.866;7.944;2023-01-08T05:37:09;1.42;;;1.00;;
16246;SDS011;8231;50.866;7.944;2023-01-08T05:39:38;1.10;;;0.88;;
16246;SDS011;8231;50.866;7.944;2023-01-08T05:42:06;0.90;;;0.90;;
16246;SDS011;8231;50.866;7.944;2023-01-08T05:44:36;0.80;;;0.70;;
16246;SDS011;8231;50.866;7.944;2023-01-08T05:47:04;0.73;;;0.70;;
16246;SDS011;8231;50.866;7.944;2023-01-08T05:49:32;0.80;;;0.80;;
16246;SDS011;8231;50.866;7.944;2023-01-08T05:52:00;2.80;;;1.00;;
16246;SDS011;8231;50.866;7.944;2023-01-08T05:54:28;0.88;;;0.85;;
16246;SDS011;8231;50.866;7.944;2023-01-08T05:56:57;1.23;;;0.75;;
16246;SDS011;8231;50.866;7.944;2023-01-08T05:59:25;1.23;;;0.90;;
16246;SDS011;8231;50.866;7.944;2023-01-08T06:01:54;1.50;;;0.93;;
16246;SDS011;8231;50.866;7.944;2023-01-08T06:04:22;1.35;;;0.93;;
16246;SDS011;8231;50.866;7.944;2023-01-08T06:06:50;1.85;;;0.68;;
16246;SDS011;8231;50.866;7.944;2023-01-08T06:09:19;1.50;;;0.85;;
16246;SDS011;8231;50.866;7.944;2023-01-08T06:11:47;0.65;;;0.60;;
16246;SDS011;8231;50.866;7.944;2023-01-08T06:14:15;0.82;;;0.82;;
16246;SDS011;8231;50.866;7.944;2023-01-08T06:16:43;1.98;;;1.17;;
16246;SDS011;8231;50.866;7.944;2023-01-08T06:19:12;0.90;;;0.60;;
16246;SDS011;8231;50.866;7.944;2023-01-08T06:21:40;1.48;;;0.70;;
16246;SDS011;8231;50.866;7.944;2023-01-08T06:24:09;0.90;;;0.90;;
16246;SDS011;8231;50.866;7.944;2023-01-08T06:26:37;0.70;;;0.70;;
16246;SDS011;8231;50.866;7.944;2023-01-08T06:29:05;1.13;;;0.80;;
16246;SDS011;8231;50.866;7.944;2023-01-08T06:31:33;0.70;;;0.70;;
16246;SDS011;8231;50.866;7.944;2023-01-08T06:34:01;0.80;;;0.80;;
16246;SDS011;8231;50.866;7.944;2023-01-08T06:36:31;0.75;;;0.70;;
16246;SDS011;8231;50.866;7.944;2023-01-08T06:38:59;1.38;;;0.63;;
16246;SDS011;8231;50.866;7.944;2023-01-08T06:41:27;2.53;;;0.95;;
16246;SDS011;8231;50.866;7.944;2023-01-08T06:43:55;2.63;;;0.90;;
16246;SDS011;8231;50.866;7.944;2023-01-08T06:46:23;1.58;;;0.70;;
16246;SDS011;8231;50.866;7.944;2023-01-08T06:48:51;0.80;;;0.70;;
16246;SDS011;8231;50.866;7.944;2023-01-08T06:51:19;1.38;;;0.85;;
16246;SDS011;8231;50.866;7.944;2023-01-08T06:53:48;1.08;;;0.98;;
16246;SDS011;8231;50.866;7.944;2023-01-08T06:56:16;0.95;;;0.93;;
16246;SDS011;8231;50.866;7.944;2023-01-08T06:58:44;1.00;;;0.93;;
16246;SDS011;8231;50.866;7.944;2023-01-08T07:01:13;1.75;;;1.13;;
16246;SDS011;8231;50.866;7.944;2023-01-08T07:03:43;0.93;;;0.82;;
16246;SDS011;8231;50.866;7.944;2023-01-08T07:06:12;1.08;;;0.93;;
16246;SDS011;8231;50.866;7.944;2023-01-08T07:08:42;2.35;;;0.93;;
16246;SDS011;8231;50.866;7.944;2023-01-08T07:11:12;1.02;;;0.70;;
16246;SDS011;8231;50.866;7.944;2023-01-08T07:13:41;0.90;;;0.80;;
16246;SDS011;8231;50.866;7.944;2023-01-08T07:16:10;0.90;;;0.75;;
16246;SDS011;8231;50.866;7.944;2023-01-08T07:18:39;1.15;;;1.05;;
16246;SDS011;8231;50.866;7.944;2023-01-08T07:21:07;2.03;;;0.80;;
16246;SDS011;8231;50.866;7.944;2023-01-08T07:23:35;1.00;;;0.90;;
16246;SDS011;8231;50.866;7.944;2023-01-08T07:26:05;2.15;;;1.00;;
16246;SDS011;8231;50.866;7.944;2023-01-08T07:28:35;3.33;;;0.90;;
16246;SDS011;8231;50.866;7.944;2023-01-08T07:31:03;1.13;;;0.80;;
16246;SDS011;8231;50.866;7.944;2023-01-08T07:33:32;0.88;;;0.70;;
16246;SDS011;8231;50.866;7.944;2023-01-08T07:36:01;0.85;;;0.70;;
16246;SDS011;8231;50.866;7.944;2023-01-08T07:38:29;1.60;;;1.05;;
16246;SDS011;8231;50.866;7.944;2023-01-08T07:40:57;1.08;;;0.98;;
16246;SDS011;8231;50.866;7.944;2023-01-08T07:43:26;0.95;;;0.82;;
16246;SDS011;8231;50.866;7.944;2023-01-08T07:45:56;1.08;;;0.98;;
16246;SDS011;8231;50.866;7.944;2023-01-08T07:48:24;1.20;;;0.80;;
16246;SDS011;8231;50.866;7.944;2023-01-08T07:50:52;1.10;;;1.00;;
16246;SDS011;8231;50.866;7.944;2023-01-08T07:53:21;0.70;;;0.70;;
16246;SDS011;8231;50.866;7.944;2023-01-08T07:55:49;0.85;;;0.82;;
16246;SDS011;8231;50.866;7.944;2023-01-08T07:58:17;1.17;;;0.60;;
16246;SDS011;8231;50.866;7.944;2023-01-08T08:00:45;0.85;;;0.85;;
16246;SDS011;8231;50.866;7.944;2023-01-08T08:03:14;1.42;;;1.02;;
16246;SDS011;8231;50.866;7.944;2023-01-08T08:05:43;1.13;;;0.98;;
16246;SDS011;8231;50.866;7.944;2023-01-08T08:08:11;1.17;;;0.70;;
16246;SDS011;8231;50.866;7.944;2023-01-08T08:10:40;1.25;;;0.90;;
16246;SDS011;8231;50.866;7.944;2023-01-08T08:13:09;1.30;;;1.00;;
16246;SDS011;8231;50.866;7.944;2023-01-08T08:15:38;1.35;;;1.00;;
16246;SDS011;8231;50.866;7.944;2023-01-08T08:18:06;1.15;;;1.05;;
16246;SDS011;8231;50.866;7.944;2023-01-08T08:20:36;1.05;;;0.75;;
16246;SDS011;8231;50.866;7.944;2023-01-08T08:23:05;1.10;;;1.00;;
16246;SDS011;8231;50.866;7.944;2023-01-08T08:25:34;1.25;;;1.15;;
16246;SDS011;8231;50.866;7.944;2023-01-08T08:28:03;0.90;;;0.90;;
16246;SDS011;8231;50.866;7.944;2023-01-08T08:30:32;1.15;;;0.98;;
16246;SDS011;8231;50.866;7.944;2023-01-08T08:33:02;0.90;;;0.90;;
16246;SDS011;8231;50.866;7.944;2023-01-08T08:35:32;0.85;;;0.70;;
16246;SDS011;8231;50.866;7.944;2023-01-08T08:38:02;1.00;;;0.90;;
16246;SDS011;8231;50.866;7.944;2023-01-08T08:40:31;1.00;;;0.90;;
16246;SDS011;8231;50.866;7.944;2023-01-08T08:43:01;1.55;;;1.00;;
16246;SDS011;8231;50.866;7.944;2023-01-08T08:45:30;1.30;;;0.90;;
16246;SDS011;8231;50.866;7.944;2023-01-08T08:47:58;1.13;;;0.90;;
16246;SDS011;8231;50.866;7.944;2023-01-08T08:50:26;0.80;;;0.80;;
16246;SDS011;8231;50.866;7.944;2023-01-08T08:52:57;2.25;;;0.93;;
16246;SDS011;8231;50.866;7.944;2023-01-08T08:55:27;0.70;;;0.65;;
16246;SDS011;8231;50.866;7.944;2023-01-08T08:58:00;1.77;;;0.93;;
16246;SDS011;8231;50.866;7.944;2023-01-08T09:00:31;1.70;;;0.80;;
16246;SDS011;8231;50.866;7.944;2023-01-08T09:02:59;1.35;;;1.00;;
16246;SDS011;8231;50.866;7.944;2023-01-08T09:05:27;1.25;;;0.80;;
16246;SDS011;8231;50.866;7.944;2023-01-08T09:07:56;2.50;;;0.98;;
16246;SDS011;8231;50.866;7.944;2023-01-08T09:10:26;1.75;;;0.70;;
16246;SDS011;8231;50.866;7.944;2023-01-08T09:12:54;1.60;;;0.80;;
16246;SDS011;8231;50.866;7.944;2023-01-08T09:15:22;1.10;;;1.00;;
16246;SDS011;8231;50.866;7.944;2023-01-08T09:17:51;1.15;;;1.05;;
16246;SDS011;8231;50.866;7.944;2023-01-08T09:20:20;1.92;;;1.13;;
16246;SDS011;8231;50.866;7.944;2023-01-08T09:22:49;1.15;;;1.00;;
16246;SDS011;8231;50.866;7.944;2023-01-08T09:25:17;1.58;;;1.35;;
16246;SDS011;8231;50.866;7.944;2023-01-08T09:27:46;1.90;;;1.00;;
16246;SDS011;8231;50.866;7.944;2023-01-08T09:30:14;1.23;;;1.13;;
16246;SDS011;8231;50.866;7.944;2023-01-08T09:32:43;2.25;;;0.93;;
16246;SDS011;8231;50.866;7.944;2023-01-08T09:35:11;1.52;;;1.00;;
16246;SDS011;8231;50.866;7.944;2023-01-08T09:37:39;2.03;;;1.30;;
16246;SDS011;8231;50.866;7.944;2023-01-08T09:40:08;2.47;;;1.70;;
16246;SDS011;8231;50.866;7.944;2023-01-08T09:42:41;2.85;;;1.35;;
16246;SDS011;8231;50.866;7.944;2023-01-08T09:45:14;2.25;;;1.88;;
16246;SDS011;8231;50.866;7.944;2023-01-08T09:47:49;2.22;;;1.30;;
16246;SDS011;8231;50.866;7.944;2023-01-08T09:50:17;3.30;;;0.95;;
16246;SDS011;8231;50.866;7.944;2023-01-08T09:52:47;0.95;;;0.85;;
16246;SDS011;8231;50.866;7.944;2023-01-08T09:55:15;1.83;;;1.20;;
16246;SDS011;8231;50.866;7.944;2023-01-08T09:57:44;2.25;;;1.00;;
16246;SDS011;8231;50.866;7.944;2023-01-08T10:00:15;1.70;;;1.10;;
16246;SDS011;8231;50.866;7.944;2023-01-08T10:02:46;1.00;;;0.88;;
16246;SDS011;8231;50.866;7.944;2023-01-08T10:05:16;0.70;;;0.70;;
16246;SDS011;8231;50.866;7.944;2023-01-08T10:07:44;1.58;;;1.15;;
16246;SDS011;8231;50.866;7.944;2023-01-08T10:10:18;3.63;;;1.40;;
16246;SDS011;8231;50.866;7.944;2023-01-08T10:12:48;4.47;;;1.20;;
16246;SDS011;8231;50.866;7.944;2023-01-08T10:15:18;2.85;;;2.65;;
16246;SDS011;8231;50.866;7.944;2023-01-08T10:17:50;1.15;;;1.05;;
16246;SDS011;8231;50.866;7.944;2023-01-08T10:20:23;2.00;;;1.15;;
16246;SDS011;8231;50.866;7.944;2023-01-08T10:22:55;1.63;;;1.10;;
16246;SDS011;8231;50.866;7.944;2023-01-08T10:25:45;2.83;;;1.17;;
16246;SDS011;8231;50.866;7.944;2023-01-08T10:28:17;1.00;;;0.80;;
16246;SDS011;8231;50.866;7.944;2023-01-08T10:30:48;3.00;;;1.33;;
16246;SDS011;8231;50.866;7.944;2023-01-08T10:33:18;2.42;;;1.30;;
16246;SDS011;8231;50.866;7.944;2023-01-08T10:35:50;2.05;;;0.98;;
16246;SDS011;8231;50.866;7.944;2023-01-08T10:38:25;1.45;;;1.10;;
16246;SDS011;8231;50.866;7.944;2023-01-08T10:40:59;1.33;;;1.13;;
16246;SDS011;8231;50.866;7.944;2023-01-08T10:43:30;1.65;;;1.10;;
16246;SDS011;8231;50.866;7.944;2023-01-08T10:46:02;1.08;;;0.85;;
16246;SDS011;8231;50.866;7.944;2023-01-08T10:48:34;4.60;;;1.23;;
16246;SDS011;8231;50.866;7.944;2023-01-08T10:51:05;1.10;;;1.00;;
16246;SDS011;8231;50.866;7.944;2023-01-08T10:53:34;1.80;;;0.80;;
16246;SDS011;8231;50.866;7.944;2023-01-08T10:56:03;1.25;;;0.88;;
16246;SDS011;8231;50.866;7.944;2023-01-08T10:58:39;1.05;;;0.60;;
16246;SDS011;8231;50.866;7.944;2023-01-08T11:01:10;0.63;;;0.60;;
16246;SDS011;8231;50.866;7.944;2023-01-08T11:03:46;1.65;;;0.70;;
16246;SDS011;8231;50.866;7.944;2023-01-08T11:06:18;0.80;;;0.70;;
16246;SDS011;8231;50.866;7.944;2023-01-08T11:08:49;1.15;;;0.85;;
16246;SDS011;8231;50.866;7.944;2023-01-08T11:11:19;0.85;;;0.77;;
16246;SDS011;8231;50.866;7.944;2023-01-08T11:13:50;0.60;;;0.57;;
16246;SDS011;8231;50.866;7.944;2023-01-08T11:16:30;1.17;;;0.75;;
16246;SDS011;8231;50.866;7.944;2023-01-08T11:19:01;2.05;;;0.90;;
16246;SDS011;8231;50.866;7.944;2023-01-08T11:21:30;1.15;;;0.70;;
16246;SDS011;8231;50.866;7.944;2023-01-08T11:24:09;1.08;;;0.80;;
16246;SDS011;8231;50.866;7.944;2023-01-08T11:26:44;1.42;;;0.93;;
16246;SDS011;8231;50.866;7.944;2023-01-08T11:29:16;1.95;;;0.60;;
16246;SDS011;8231;50.866;7.944;2023-01-08T11:31:51;1.75;;;1.65;;
16246;SDS011;8231;50.866;7.944;2023-01-08T11:34:25;0.80;;;0.73;;
16246;SDS011;8231;50.866;7.944;2023-01-08T11:36:58;1.27;;;0.70;;
16246;SDS011;8231;50.866;7.944;2023-01-08T11:39:32;0.52;;;0.50;;
16246;SDS011;8231;50.866;7.944;2023-01-08T11:42:13;1.92;;;0.75;;
16246;SDS011;8231;50.866;7.944;2023-01-08T11:44:57;1.05;;;0.60;;
16246;SDS011;8231;50.866;7.944;2023-01-08T11:48:09;0.70;;;0.70;;
16246;SDS011;8231;50.866;7.944;2023-01-08T11:50:57;1.38;;;0.80;;
16246;SDS011;8231;50.866;7.944;2023-01-08T11:53:35;3.00;;;0.60;;
16246;SDS011;8231;50.866;7.944;2023-01-08T11:56:12;1.20;;;0.65;;
16246;SDS011;8231;50.866;7.944;2023-01-08T11:58:54;0.73;;;0.70;;
16246;SDS011;8231;50.866;7.944;2023-01-08T12:01:41;0.60;;;0.57;;
16246;SDS011;8231;50.866;7.944;2023-01-08T12:04:31;2.13;;;0.85;;
16246;SDS011;8231;50.866;7.944;2023-01-08T12:07:18;1.73;;;0.60;;
16246;SDS011;8231;50.866;7.944;2023-01-08T12:09:53;1.05;;;0.70;;
16246;SDS011;8231;50.866;7.944;2023-01-08T12:12:31;1.02;;;0.90;;
16246;SDS011;8231;50.866;7.944;2023-01-08T12:15:10;0.70;;;0.68;;
16246;SDS011;8231;50.866;7.944;2023-01-08T12:20:37;0.65;;;0.45;;
16246;SDS011;8231;50.866;7.944;2023-01-08T12:23:19;0.63;;;0.63;;
16246;SDS011;8231;50.866;7.944;2023-01-08T12:28:59;2.38;;;0.68;;
16246;SDS011;8231;50.866;7.944;2023-01-08T12:31:54;2.17;;;0.70;;
16246;SDS011;8231;50.866;7.944;2023-01-08T12:34:35;0.50;;;0.50;;
16246;SDS011;8231;50.866;7.944;2023-01-08T12:37:12;1.10;;;0.55;;
16246;SDS011;8231;50.866;7.944;2023-01-08T12:39:49;3.22;;;0.70;;
16246;SDS011;8231;50.866;7.944;2023-01-08T12:42:22;0.88;;;0.68;;
16246;SDS011;8231;50.866;7.944;2023-01-08T12:44:54;0.95;;;0.60;;
16246;SDS011;8231;50.866;7.944;2023-01-08T12:47:26;0.50;;;0.50;;
16246;SDS011;8231;50.866;7.944;2023-01-08T12:50:02;0.73;;;0.63;;
16246;SDS011;8231;50.866;7.944;2023-01-08T12:52:38;2.25;;;0.60;;
16246;SDS011;8231;50.866;7.944;2023-01-08T12:55:20;0.70;;;0.50;;
16246;SDS011;8231;50.866;7.944;2023-01-08T12:58:04;1.25;;;0.50;;
16246;SDS011;8231;50.866;7.944;2023-01-08T13:00:42;0.80;;;0.50;;
16246;SDS011;8231;50.866;7.944;2023-01-08T13:03:20;0.47;;;0.43;;
16246;SDS011;8231;50.866;7.944;2023-01-08T13:05:51;1.02;;;0.63;;
16246;SDS011;8231;50.866;7.944;2023-01-08T13:08:26;0.50;;;0.40;;
16246;SDS011;8231;50.866;7.944;2023-01-08T13:10:57;1.55;;;0.68;;
16246;SDS011;8231;50.866;7.944;2023-01-08T13:13:27;1.15;;;0.75;;
16246;SDS011;8231;50.866;7.944;2023-01-08T13:18:50;0.60;;;0.55;;
16246;SDS011;8231;50.866;7.944;2023-01-08T13:21:26;0.65;;;0.55;;
16246;SDS011;8231;50.866;7.944;2023-01-08T13:24:20;1.80;;;0.70;;
16246;SDS011;8231;50.866;7.944;2023-01-08T13:26:54;0.30;;;0.30;;
16246;SDS011;8231;50.866;7.944;2023-01-08T13:29:24;0.75;;;0.65;;
16246;SDS011;8231;50.866;7.944;2023-01-08T13:32:03;0.50;;;0.50;;
16246;SDS011;8231;50.866;7.944;2023-01-08T13:34:59;1.85;;;0.65;;
16246;SDS011;8231;50.866;7.944;2023-01-08T13:37:29;0.60;;;0.50;;
16246;SDS011;8231;50.866;7.944;2023-01-08T13:39:59;1.95;;;0.65;;
16246;SDS011;8231;50.866;7.944;2023-01-08T13:42:29;0.38;;;0.35;;
16246;SDS011;8231;50.866;7.944;2023-01-08T13:44:58;0.63;;;0.57;;
16246;SDS011;8231;50.866;7.944;2023-01-08T13:47:30;0.40;;;0.30;;
16246;SDS011;8231;50.866;7.944;2023-01-08T13:50:00;0.60;;;0.60;;
16246;SDS011;8231;50.866;7.944;2023-01-08T13:52:32;0.40;;;0.40;;
16246;SDS011;8231;50.866;7.944;2023-01-08T13:55:05;1.08;;;0.30;;
16246;SDS011;8231;50.866;7.944;2023-01-08T13:57:41;0.52;;;0.52;;
16246;SDS011;8231;50.866;7.944;2023-01-08T14:00:20;0.82;;;0.40;;
16246;SDS011;8231;50.866;7.944;2023-01-08T14:02:50;0.60;;;0.43;;
16246;SDS011;8231;50.866;7.944;2023-01-08T14:05:22;1.27;;;0.60;;
16246;SDS011;8231;50.866;7.944;2023-01-08T14:07:52;2.47;;;0.70;;
16246;SDS011;8231;50.866;7.944;2023-01-08T14:10:21;1.02;;;0.52;;
16246;SDS011;8231;50.866;7.944;2023-01-08T14:12:50;1.45;;;0.65;;
16246;SDS011;8231;50.866;7.944;2023-01-08T14:15:21;1.30;;;0.80;;
16246;SDS011;8231;50.866;7.944;2023-01-08T14:17:51;1.00;;;1.00;;
16246;SDS011;8231;50.866;7.944;2023-01-08T14:20:28;3.58;;;1.15;;
16246;SDS011;8231;50.866;7.944;2023-01-08T14:22:58;1.17;;;1.02;;
16246;SDS011;8231;50.866;7.944;2023-01-08T14:25:29;0.88;;;0.65;;
16246;SDS011;8231;50.866;7.944;2023-01-08T14:27:58;0.80;;;0.80;;
16246;SDS011;8231;50.866;7.944;2023-01-08T14:30:28;0.85;;;0.65;;
16246;SDS011;8231;50.866;7.944;2023-01-08T14:32:56;1.88;;;0.68;;
16246;SDS011;8231;50.866;7.944;2023-01-08T14:35:27;0.95;;;0.77;;
16246;SDS011;8231;50.866;7.944;2023-01-08T14:37:58;0.65;;;0.65;;
16246;SDS011;8231;50.866;7.944;2023-01-08T14:40:33;3.20;;;0.75;;
16246;SDS011;8231;50.866;7.944;2023-01-08T14:43:08;0.63;;;0.63;;
16246;SDS011;8231;50.866;7.944;2023-01-08T14:45:38;0.80;;;0.68;;
16246;SDS011;8231;50.866;7.944;2023-01-08T14:48:11;1.17;;;0.73;;
16246;SDS011;8231;50.866;7.944;2023-01-08T14:50:51;2.17;;;0.73;;
16246;SDS011;8231;50.866;7.944;2023-01-08T14:53:26;0.65;;;0.60;;
16246;SDS011;8231;50.866;7.944;2023-01-08T14:55:59;1.92;;;0.50;;
16246;SDS011;8231;50.866;7.944;2023-01-08T14:58:29;1.25;;;0.50;;
16246;SDS011;8231;50.866;7.944;2023-01-08T15:01:04;2.35;;;0.60;;
16246;SDS011;8231;50.866;7.944;2023-01-08T15:03:35;0.40;;;0.35;;
16246;SDS011;8231;50.866;7.944;2023-01-08T15:06:04;0.93;;;0.70;;
16246;SDS011;8231;50.866;7.944;2023-01-08T15:08:37;1.88;;;0.40;;
16246;SDS011;8231;50.866;7.944;2023-01-08T15:11:19;0.80;;;0.47;;
16246;SDS011;8231;50.866;7.944;2023-01-08T15:13:49;0.85;;;0.82;;
16246;SDS011;8231;50.866;7.944;2023-01-08T15:16:20;0.73;;;0.50;;
16246;SDS011;8231;50.866;7.944;2023-01-08T15:18:58;2.25;;;1.45;;
16246;SDS011;8231;50.866;7.944;2023-01-08T15:21:28;0.73;;;0.40;;
16246;SDS011;8231;50.866;7.944;2023-01-08T15:23:57;0.40;;;0.40;;
16246;SDS011;8231;50.866;7.944;2023-01-08T15:26:28;1.13;;;0.60;;
16246;SDS011;8231;50.866;7.944;2023-01-08T15:28:57;7.68;;;5.55;;
16246;SDS011;8231;50.866;7.944;2023-01-08T15:31:27;2.38;;;1.35;;
16246;SDS011;8231;50.866;7.944;2023-01-08T15:33:57;0.30;;;0.30;;